createdAt,value
2018-03-21T00:02:29.690Z,3.23
2018-03-21T00:05:03.220Z,4.37
2018-03-21T00:07:35.406Z,4.57
2018-03-21T00:10:07.653Z,8.53
2018-03-21T00:12:40.333Z,8.83
2018-03-21T00:15:12.588Z,7.73
2018-03-21T00:17:45.074Z,8.30
2018-03-21T00:20:17.306Z,4.23
2018-03-21T00:22:50.194Z,5.40
2018-03-21T00:25:22.544Z,5.40
2018-03-21T00:27:54.575Z,4.10
2018-03-21T00:30:28.073Z,4.20
2018-03-21T00:33:00.223Z,4.43
2018-03-21T00:35:32.488Z,3.30
2018-03-21T00:38:04.949Z,4.43
2018-03-21T00:40:37.166Z,8.37
2018-03-21T00:43:09.532Z,5.77
2018-03-21T00:45:41.596Z,4.47
2018-03-21T00:48:13.810Z,5.33
2018-03-21T00:50:46.002Z,5.70
2018-03-21T00:53:18.321Z,4.67
2018-03-21T00:55:50.661Z,4.90
2018-03-21T00:58:22.881Z,4.47
2018-03-21T01:00:56.998Z,5.60
2018-03-21T01:03:29.382Z,4.53
2018-03-21T01:06:01.871Z,6.93
2018-03-21T01:08:34.977Z,4.90
2018-03-21T01:11:08.070Z,4.93
2018-03-21T01:13:41.017Z,5.10
2018-03-21T01:16:13.607Z,3.53
2018-03-21T01:18:45.592Z,4.90
2018-03-21T01:21:17.898Z,6.13
2018-03-21T01:23:50.553Z,4.40
2018-03-21T01:26:22.757Z,3.87
2018-03-21T01:28:54.785Z,3.37
2018-03-21T01:31:27.754Z,3.37
2018-03-21T01:33:59.968Z,4.07
2018-03-21T01:36:32.627Z,3.53
2018-03-21T01:39:04.915Z,4.70
2018-03-21T01:41:38.025Z,5.87
2018-03-21T01:44:10.400Z,6.87
2018-03-21T01:46:42.593Z,3.13
2018-03-21T01:49:14.946Z,3.93
2018-03-21T01:51:47.923Z,4.80
2018-03-21T01:54:20.093Z,4.17
2018-03-21T01:56:52.266Z,3.63
2018-03-21T01:59:24.644Z,3.87
2018-03-21T02:01:57.062Z,2.80
2018-03-21T02:04:29.225Z,4.30
2018-03-21T02:07:01.509Z,4.90
2018-03-21T02:09:34.464Z,6.10
2018-03-21T02:12:06.840Z,3.33
2018-03-21T02:14:39.234Z,3.70
2018-03-21T02:17:11.455Z,2.43
2018-03-21T02:19:43.601Z,3.87
2018-03-21T02:22:16.600Z,4.27
2018-03-21T02:24:48.927Z,4.20
2018-03-21T02:27:22.163Z,5.47
2018-03-21T02:31:18.388Z,3.80
2018-03-21T02:33:50.543Z,4.53
2018-03-21T02:36:23.394Z,2.80
2018-03-21T02:38:55.471Z,3.47
2018-03-21T02:41:27.666Z,3.57
2018-03-21T02:44:00.216Z,2.87
2018-03-21T02:46:32.348Z,4.68
2018-03-21T02:49:04.845Z,5.60
2018-03-21T02:51:37.526Z,2.30
2018-03-21T02:54:09.895Z,2.80
2018-03-21T02:56:42.084Z,8.40
2018-03-21T02:59:14.253Z,2.47
2018-03-21T03:01:46.681Z,3.87
2018-03-21T03:04:18.908Z,3.47
2018-03-21T03:06:51.111Z,3.70
2018-03-21T03:09:23.515Z,4.93
2018-03-21T03:11:56.425Z,3.12
2018-03-21T03:14:28.739Z,3.17
2018-03-21T03:17:00.916Z,3.33
2018-03-21T03:19:33.337Z,4.37
2018-03-21T03:22:05.583Z,2.90
2018-03-21T03:24:37.744Z,2.78
2018-03-21T03:27:10.050Z,2.70
2018-03-21T03:29:42.709Z,5.95
2018-03-21T03:32:14.888Z,3.30
2018-03-21T03:34:47.257Z,2.85
2018-03-21T03:37:19.294Z,2.43
2018-03-21T03:39:51.667Z,6.22
2018-03-21T03:42:23.959Z,2.37
2018-03-21T03:44:56.683Z,2.97
2018-03-21T03:47:29.067Z,3.92
2018-03-21T03:50:01.143Z,5.22
2018-03-21T03:52:33.582Z,3.50
2018-03-21T03:55:07.354Z,2.58
2018-03-21T03:57:39.558Z,3.62
2018-03-21T04:00:11.956Z,3.47
2018-03-21T04:02:44.415Z,2.78
2018-03-21T04:05:16.467Z,2.28
2018-03-21T04:07:48.812Z,3.67
2018-03-21T04:10:21.962Z,4.90
2018-03-21T04:12:54.448Z,2.62
2018-03-21T04:15:26.765Z,3.25
2018-03-21T04:17:59.231Z,5.07
2018-03-21T04:20:31.584Z,3.00
2018-03-21T04:23:03.613Z,2.42
2018-03-21T04:25:36.749Z,3.00
2018-03-21T04:28:08.956Z,2.60
2018-03-21T04:30:41.152Z,2.42
2018-03-21T04:33:13.693Z,3.53
2018-03-21T04:35:45.827Z,2.42
2018-03-21T04:38:18.148Z,3.75
2018-03-21T04:40:50.733Z,3.92
2018-03-21T04:43:22.840Z,3.22
2018-03-21T04:45:55.744Z,3.12
2018-03-21T04:48:28.292Z,2.47
2018-03-21T04:51:00.649Z,3.65
2018-03-21T04:53:32.922Z,4.43
2018-03-21T04:56:05.517Z,3.42
2018-03-21T04:58:37.970Z,4.00
2018-03-21T05:01:10.469Z,3.37
2018-03-21T05:03:44.082Z,4.03
2018-03-21T05:06:16.291Z,3.70
2018-03-21T05:08:48.438Z,4.72
2018-03-21T05:11:21.337Z,2.72
2018-03-21T05:13:53.688Z,4.22
2018-03-21T05:16:25.916Z,5.10
2018-03-21T05:18:59.113Z,4.50
2018-03-21T05:21:32.094Z,3.40
2018-03-21T05:24:04.605Z,5.35
2018-03-21T05:26:38.323Z,3.15
2018-03-21T05:29:10.809Z,2.70
2018-03-21T05:31:43.242Z,12.02
2018-03-21T05:34:15.811Z,3.20
2018-03-21T05:36:48.149Z,2.95
2018-03-21T05:39:20.609Z,3.95
2018-03-21T05:41:53.130Z,3.30
2018-03-21T05:44:25.676Z,3.72
2018-03-21T05:46:57.779Z,3.05
2018-03-21T05:49:30.581Z,2.92
2018-03-21T05:52:03.045Z,9.77
2018-03-21T05:54:36.349Z,6.30
2018-03-21T05:57:08.742Z,3.87
2018-03-21T05:59:41.028Z,5.62
2018-03-21T06:02:14.056Z,4.95
2018-03-21T06:04:47.462Z,3.97
2018-03-21T06:07:19.683Z,7.25
2018-03-21T06:09:51.877Z,4.93
2018-03-21T06:12:24.677Z,7.25
2018-03-21T06:14:57.041Z,6.00
2018-03-21T06:17:29.551Z,6.62
2018-03-21T06:20:01.674Z,6.78
2018-03-21T06:22:34.024Z,7.87
2018-03-21T06:25:07.236Z,9.05
2018-03-21T06:27:39.974Z,10.93
2018-03-21T06:30:12.462Z,14.45
2018-03-21T06:32:44.694Z,10.17
2018-03-21T06:35:19.044Z,11.27
2018-03-21T06:37:51.602Z,11.15
2018-03-21T06:40:23.915Z,7.12
2018-03-21T06:42:57.263Z,8.93
2018-03-21T06:45:29.733Z,12.32
2018-03-21T06:48:02.130Z,9.63
2018-03-21T06:50:34.618Z,14.05
2018-03-21T06:53:06.968Z,8.67
2018-03-21T06:55:39.777Z,9.20
2018-03-21T06:58:12.215Z,7.25
2018-03-21T07:00:44.538Z,5.97
2018-03-21T07:03:16.959Z,10.23
2018-03-21T07:05:49.432Z,9.90
2018-03-21T07:08:22.162Z,9.40
2018-03-21T07:10:54.660Z,9.77
2018-03-21T07:13:31.890Z,7.17
2018-03-21T07:16:43.559Z,9.30
2018-03-21T07:19:16.035Z,13.13
2018-03-21T07:21:48.424Z,10.30
2018-03-21T07:24:20.989Z,8.33
2018-03-21T07:26:53.673Z,7.43
2018-03-21T07:29:26.942Z,8.50
2018-03-21T07:31:59.627Z,9.30
2018-03-21T07:34:31.955Z,8.53
2018-03-21T07:37:06.964Z,10.37
2018-03-21T07:39:40.964Z,10.83
2018-03-21T07:42:13.251Z,9.67
2018-03-21T07:44:48.906Z,10.30
2018-03-21T07:47:21.467Z,11.53
2018-03-21T07:49:54.182Z,9.07
2018-03-21T07:52:26.756Z,9.13
2018-03-21T07:54:59.553Z,9.93
2018-03-21T07:57:32.113Z,11.70
2018-03-21T08:00:08.476Z,14.43
2018-03-21T08:02:41.009Z,9.10
2018-03-21T08:05:13.345Z,8.73
2018-03-21T08:07:49.327Z,9.17
2018-03-21T08:10:21.927Z,10.53
2018-03-21T08:12:54.563Z,9.27
2018-03-21T08:15:30.775Z,7.67
2018-03-21T08:18:03.498Z,11.43
2018-03-21T08:20:35.854Z,8.40
2018-03-21T08:23:13.237Z,9.40
2018-03-21T08:25:45.883Z,7.07
2018-03-21T08:28:18.478Z,11.63
2018-03-21T08:30:51.171Z,8.83
2018-03-21T08:33:24.234Z,8.23
2018-03-21T08:35:56.793Z,9.23
2018-03-21T08:38:33.854Z,9.63
2018-03-21T08:41:06.619Z,9.77
2018-03-21T08:43:38.967Z,7.67
2018-03-21T08:46:13.856Z,6.27
2018-03-21T08:48:47.916Z,9.93
2018-03-21T08:51:20.313Z,6.93
2018-03-21T08:53:52.868Z,7.00
2018-03-21T08:56:26.036Z,12.13
2018-03-21T08:58:58.356Z,10.73
2018-03-21T09:01:30.736Z,8.10
2018-03-21T09:04:03.145Z,8.47
2018-03-21T10:48:32.895Z,2.97
2018-03-21T10:51:05.523Z,3.63
2018-03-21T10:53:39.728Z,2.50
2018-03-21T10:56:15.918Z,4.93
2018-03-21T10:58:48.537Z,4.63
2018-03-21T11:01:29.086Z,5.50
2018-03-21T11:04:02.566Z,3.20
2018-03-21T11:06:36.692Z,2.60
2018-03-21T11:09:10.153Z,3.30
2018-03-21T11:11:44.838Z,2.67
2018-03-21T11:14:18.115Z,4.07
2018-03-21T11:16:54.508Z,2.53
2018-03-21T11:19:31.795Z,2.60
2018-03-21T11:22:11.079Z,2.77
2018-03-21T11:24:46.667Z,2.97
2018-03-21T11:27:19.697Z,3.50
2018-03-21T11:29:53.330Z,2.97
2018-03-21T11:32:26.233Z,4.13
2018-03-21T11:34:59.004Z,3.30
2018-03-21T11:37:31.806Z,5.03
2018-03-21T11:40:04.597Z,2.83
2018-03-21T11:42:38.501Z,3.90
2018-03-21T11:45:12.469Z,3.20
2018-03-21T11:47:45.935Z,3.23
2018-03-21T11:50:22.256Z,2.93
2018-03-21T11:53:08.370Z,5.47
2018-03-21T11:55:43.349Z,3.57
2018-03-21T11:58:23.366Z,2.50
2018-03-21T12:00:58.196Z,2.60
2018-03-21T12:03:31.684Z,2.87
2018-03-21T12:06:04.791Z,2.27
2018-03-21T12:08:44.743Z,3.90
2018-03-21T12:11:17.765Z,2.60
2018-03-21T12:13:55.780Z,2.17
2018-03-21T12:16:29.474Z,2.23
2018-03-21T12:21:58.026Z,2.40
2018-03-21T12:24:41.029Z,2.10
2018-03-21T12:27:14.735Z,3.17
2018-03-21T12:29:47.403Z,2.03
2018-03-21T12:32:21.620Z,1.80
2018-03-21T12:35:01.504Z,3.50
2018-03-21T12:37:38.484Z,4.53
2018-03-21T12:40:14.489Z,2.30
2018-03-21T12:42:52.486Z,2.30
2018-03-21T12:45:26.890Z,1.77
2018-03-21T12:48:03.468Z,2.77
2018-03-21T12:50:36.962Z,1.80
2018-03-21T12:53:09.820Z,2.50
2018-03-21T12:55:43.372Z,2.30
2018-03-21T12:58:18.734Z,2.20
2018-03-21T13:00:51.861Z,1.87
2018-03-21T13:03:24.663Z,2.70
2018-03-21T13:19:02.835Z,3.60
2018-03-21T13:21:36.579Z,2.23
2018-03-21T13:24:11.499Z,3.20
2018-03-21T13:26:51.215Z,2.70
2018-03-21T13:29:27.935Z,2.60
2018-03-21T13:32:01.308Z,2.00
2018-03-21T13:34:35.338Z,2.17
2018-03-21T13:37:07.916Z,3.17
2018-03-21T13:39:45.267Z,2.33
2018-03-21T13:42:26.301Z,2.30
2018-03-21T13:44:59.077Z,2.23
2018-03-21T13:47:31.859Z,2.43
2018-03-21T13:50:12.779Z,2.27
2018-03-21T13:52:52.122Z,2.23
2018-03-21T13:55:29.999Z,4.60
2018-03-21T13:58:09.934Z,3.63
2018-03-21T14:00:47.657Z,2.73
2018-03-21T14:03:20.460Z,3.27
2018-03-21T14:06:00.172Z,1.77
2018-03-21T14:08:33.545Z,2.40
2018-03-21T14:11:09.948Z,2.73
2018-03-21T14:13:42.727Z,2.60
2018-03-21T14:16:15.484Z,2.43
2018-03-21T14:18:48.290Z,1.77
2018-03-21T14:21:23.491Z,2.77
2018-03-21T14:24:01.390Z,2.27
2018-03-21T14:26:35.577Z,3.80
2018-03-21T14:29:13.103Z,7.40
2018-03-21T14:31:46.020Z,3.23
2018-03-21T14:34:19.603Z,1.60
2018-03-21T14:36:52.131Z,2.37
2018-03-21T14:39:25.817Z,2.33
2018-03-21T15:00:20.459Z,3.77
2018-03-21T15:02:53.248Z,2.57
2018-03-21T15:05:31.631Z,2.00
2018-03-21T15:08:05.752Z,2.57
2018-03-21T15:10:39.253Z,3.23
2018-03-21T15:13:12.003Z,2.23
2018-03-21T15:15:44.545Z,2.47
2018-03-21T15:18:23.448Z,2.03
2018-03-21T15:20:56.884Z,2.17
2018-03-21T15:23:31.066Z,2.27
2018-03-21T15:26:10.727Z,2.23
2018-03-21T15:28:43.241Z,2.30
2018-03-21T15:31:15.878Z,2.40
2018-03-21T15:33:54.951Z,2.87
2018-03-21T15:36:27.757Z,4.93
2018-03-21T15:39:00.440Z,2.47
2018-03-21T15:41:37.020Z,3.30
2018-03-21T15:44:09.800Z,1.30
2018-03-21T15:46:43.198Z,2.30
2018-03-21T15:49:19.522Z,2.17
2018-03-21T15:51:52.308Z,1.43
2018-03-21T15:54:26.687Z,2.10
2018-03-21T15:56:59.482Z,3.10
2018-03-21T15:59:34.320Z,1.87
2018-03-21T16:02:14.210Z,1.77
2018-03-21T16:04:51.695Z,2.50
2018-03-21T16:07:26.286Z,1.93
2018-03-21T16:10:02.026Z,1.63
2018-03-21T16:12:41.107Z,3.23
2018-03-21T16:15:13.957Z,1.90
2018-03-21T16:17:46.547Z,1.60
2018-03-21T16:20:23.250Z,2.13
2018-03-21T16:22:56.146Z,1.87
2018-03-21T16:25:28.810Z,2.20
2018-03-21T16:28:02.576Z,3.13
2018-03-21T16:30:35.635Z,2.20
2018-03-21T16:33:08.842Z,3.20
2018-03-21T16:35:44.843Z,3.00
2018-03-21T16:38:18.993Z,3.00
2018-03-21T16:40:53.117Z,2.70
2018-03-21T16:43:31.865Z,3.13
2018-03-21T16:46:05.320Z,2.53
2018-03-21T16:48:38.168Z,1.90
2018-03-21T16:51:11.436Z,3.93
2018-03-21T16:53:44.910Z,1.90
2018-03-21T16:56:19.950Z,3.13
2018-03-21T16:58:53.023Z,2.60
2018-03-21T17:01:25.999Z,3.20
2018-03-21T17:04:04.010Z,6.27
2018-03-21T17:06:36.876Z,6.60
2018-03-21T17:09:11.189Z,5.50
2018-03-21T17:11:45.064Z,3.00
2018-03-21T17:14:17.874Z,2.80
2018-03-21T17:16:50.695Z,4.47
2018-03-21T17:19:23.624Z,5.93
2018-03-21T17:21:56.193Z,7.30
2018-03-21T17:24:29.079Z,6.27
2018-03-21T17:27:02.059Z,5.30
2018-03-21T17:29:34.767Z,10.53
2018-03-21T17:32:07.424Z,6.40
2018-03-21T17:34:40.031Z,9.57
2018-03-21T17:37:14.468Z,8.67
2018-03-21T17:39:47.394Z,11.47
2018-03-21T17:42:24.953Z,16.80
2018-03-21T17:44:57.935Z,15.27
2018-03-21T17:47:31.957Z,11.43
2018-03-21T17:50:05.315Z,13.07
2018-03-21T17:52:38.655Z,15.77
2018-03-21T17:55:11.400Z,9.13
2018-03-21T17:57:44.442Z,9.63
2018-03-21T18:00:17.283Z,6.97
2018-03-21T18:02:50.037Z,6.10
2018-03-21T18:05:22.916Z,7.07
2018-03-21T18:07:55.591Z,4.20
2018-03-21T18:10:28.305Z,5.83
2018-03-21T18:13:01.621Z,5.37
2018-03-21T18:15:34.401Z,4.20
2018-03-21T18:18:08.090Z,4.63
2018-03-21T18:20:41.574Z,3.60
2018-03-21T18:23:16.233Z,3.40
2018-03-21T18:25:49.044Z,3.10
2018-03-21T18:28:21.818Z,5.47
2018-03-21T18:30:56.005Z,4.53
2018-03-21T18:33:28.916Z,7.43
2018-03-21T18:36:02.581Z,4.37
2018-03-21T18:38:36.161Z,5.03
2018-03-21T18:41:08.820Z,8.97
2018-03-21T18:43:44.388Z,3.30
2018-03-21T18:46:17.906Z,9.07
2018-03-21T18:48:50.681Z,6.47
2018-03-21T18:51:26.553Z,5.30
2018-03-21T18:53:59.575Z,4.10
2018-03-21T18:56:32.901Z,5.37
2018-03-21T18:59:06.478Z,4.43
2018-03-21T19:01:42.976Z,7.77
2018-03-21T19:04:15.567Z,5.97
2018-03-21T19:06:48.656Z,5.50
2018-03-21T19:09:21.300Z,6.53
2018-03-21T19:11:53.772Z,5.57
2018-03-21T19:14:28.346Z,7.67
2018-03-21T19:17:01.055Z,7.30
2018-03-21T19:19:35.043Z,7.37
2018-03-21T19:22:07.472Z,5.70
2018-03-21T19:24:42.110Z,6.13
2018-03-21T19:27:16.134Z,18.90
2018-03-21T19:29:48.925Z,7.93
2018-03-21T19:32:22.584Z,7.83
2018-03-21T19:34:55.217Z,7.17
2018-03-21T19:37:28.292Z,5.97
2018-03-21T19:40:02.270Z,9.07
2018-03-21T19:42:36.080Z,7.73
2018-03-21T19:45:09.577Z,6.80
2018-03-21T19:47:43.050Z,6.30
2018-03-21T19:50:16.498Z,5.63
2018-03-21T19:52:49.130Z,6.47
2018-03-21T19:55:21.811Z,11.90
2018-03-21T19:57:55.676Z,9.30
2018-03-21T20:00:28.493Z,8.90
2018-03-21T20:03:01.791Z,7.70
2018-03-21T20:05:34.455Z,7.23
2018-03-21T20:08:08.341Z,5.27
2018-03-21T20:10:41.018Z,7.40
2018-03-21T20:13:13.601Z,12.30
2018-03-21T20:15:46.217Z,7.00
2018-03-21T20:18:18.794Z,7.37
2018-03-21T20:20:51.337Z,10.60
2018-03-21T20:23:24.263Z,9.17
2018-03-21T20:25:56.882Z,8.23
2018-03-21T20:28:29.471Z,11.27
2018-03-21T20:31:02.147Z,7.53
2018-03-21T20:33:35.335Z,8.67
2018-03-21T20:36:08.928Z,9.77
2018-03-21T20:38:41.371Z,7.10
2018-03-21T20:41:22.698Z,7.23
2018-03-21T20:43:58.029Z,9.30
2018-03-21T20:46:30.631Z,6.73
2018-03-21T20:49:03.704Z,5.20
2018-03-21T20:51:36.352Z,7.03
2018-03-21T20:54:09.109Z,7.13
2018-03-21T20:56:42.021Z,6.17
2018-03-21T20:59:14.747Z,8.93
2018-03-21T21:01:47.156Z,6.80
2018-03-21T21:04:19.557Z,6.27
2018-03-21T21:06:52.262Z,4.27
2018-03-21T21:09:24.903Z,6.23
2018-03-21T21:11:57.713Z,8.80
2018-03-21T21:14:30.155Z,7.17
2018-03-21T21:17:02.801Z,9.60
2018-03-21T21:19:36.274Z,6.77
2018-03-21T21:22:09.765Z,5.70
2018-03-21T21:24:42.573Z,7.30
2018-03-21T21:27:16.057Z,6.20
2018-03-21T21:29:48.436Z,5.17
2018-03-21T21:32:21.664Z,6.93
2018-03-21T21:34:54.283Z,5.33
2018-03-21T21:37:28.433Z,8.00
2018-03-21T21:40:01.030Z,5.47
2018-03-21T21:42:33.324Z,5.73
2018-03-21T21:45:05.833Z,5.57
2018-03-21T21:47:38.541Z,5.03
2018-03-21T21:50:11.609Z,4.33
2018-03-21T21:52:47.193Z,4.93
2018-03-21T21:55:24.245Z,6.77
2018-03-21T21:57:56.729Z,5.67
2018-03-21T22:00:29.532Z,7.63
2018-03-21T22:03:02.364Z,6.30
2018-03-21T22:05:34.796Z,8.30
2018-03-21T22:08:08.368Z,6.47
2018-03-21T22:10:41.074Z,8.93
2018-03-21T22:13:14.234Z,4.60
2018-03-21T22:15:46.629Z,6.10
2018-03-21T22:18:19.941Z,4.97
2018-03-21T22:20:52.417Z,4.50
2018-03-21T22:23:29.660Z,4.33
2018-03-21T22:26:02.287Z,7.43
2018-03-21T22:28:34.849Z,5.33
2018-03-21T22:31:09.344Z,7.00
2018-03-21T22:33:41.839Z,3.40
2018-03-21T22:36:14.166Z,3.93
2018-03-21T22:38:46.697Z,4.00
2018-03-21T22:41:19.236Z,4.13
2018-03-21T22:43:51.701Z,4.73
2018-03-21T22:46:24.522Z,7.17
2018-03-21T22:48:57.992Z,2.97
2018-03-21T22:51:30.634Z,7.03
2018-03-21T22:54:03.550Z,7.57
2018-03-21T22:56:35.986Z,4.67
2018-03-21T22:59:08.831Z,7.27
2018-03-21T23:01:41.219Z,5.20
2018-03-21T23:04:13.711Z,5.33
2018-03-21T23:06:46.200Z,4.27
2018-03-21T23:09:18.543Z,5.20
2018-03-21T23:11:52.696Z,5.77
2018-03-21T23:14:26.229Z,3.97
2018-03-21T23:16:58.542Z,3.13
2018-03-21T23:19:32.302Z,4.10
2018-03-21T23:22:04.620Z,5.20
2018-03-21T23:24:37.154Z,5.33
2018-03-21T23:27:10.074Z,4.30
2018-03-21T23:29:42.544Z,6.57
2018-03-21T23:32:15.035Z,3.23
2018-03-21T23:34:47.959Z,3.63
2018-03-21T23:37:20.612Z,2.70
2018-03-21T23:39:54.114Z,4.33
2018-03-21T23:42:28.083Z,4.30
2018-03-21T23:45:00.498Z,5.43
2018-03-21T23:47:33.058Z,3.37
2018-03-21T23:50:06.549Z,7.23
2018-03-21T23:52:39.715Z,4.50
2018-03-21T23:55:12.222Z,3.47
2018-03-21T23:57:46.140Z,4.17
